sensor_id;sensor_type;location;lat;lon;timestamp;temperature;humidity
7388;DHT22;3735;50.136;11.062;2023-05-07T00:00:06;13.20;99.90
7388;DHT22;3735;50.136;11.062;2023-05-07T00:02:33;13.20;99.90
7388;DHT22;3735;50.136;11.062;2023-05-07T00:04:59;13.20;99.90
7388;DHT22;3735;50.136;11.062;2023-05-07T00:07:25;13.20;99.90
7388;DHT22;3735;50.136;11.062;2023-05-07T00:09:51;13.20;99.90
7388;DHT22;3735;50.136;11.062;2023-05-07T00:12:16;13.20;99.90
7388;DHT22;3735;50.136;11.062;2023-05-07T00:14:42;13.20;99.90
7388;DHT22;3735;50.136;11.062;2023-05-07T00:17:08;13.10;99.90
7388;DHT22;3735;50.136;11.062;2023-05-07T00:19:33;13.10;99.90
7388;DHT22;3735;50.136;11.062;2023-05-07T00:21:59;13.10;99.90
7388;DHT22;3735;50.136;11.062;2023-05-07T00:24:25;13.10;99.90
7388;DHT22;3735;50.136;11.062;2023-05-07T00:26:51;13.10;99.90
7388;DHT22;3735;50.136;11.062;2023-05-07T00:29:18;13.10;99.90
7388;DHT22;3735;50.136;11.062;2023-05-07T00:31:43;13.00;99.90
7388;DHT22;3735;50.136;11.062;2023-05-07T00:34:09;13.00;99.90
7388;DHT22;3735;50.136;11.062;2023-05-07T00:36:35;12.90;99.90
7388;DHT22;3735;50.136;11.062;2023-05-07T00:39:01;12.80;99.90
7388;DHT22;3735;50.136;11.062;2023-05-07T00:41:29;12.90;99.90
7388;DHT22;3735;50.136;11.062;2023-05-07T00:43:56;12.80;99.90
7388;DHT22;3735;50.136;11.062;2023-05-07T00:46:22;12.80;99.90
7388;DHT22;3735;50.136;11.062;2023-05-07T00:48:50;12.90;99.90
7388;DHT22;3735;50.136;11.062;2023-05-07T00:51:17;12.90;99.90
7388;DHT22;3735;50.136;11.062;2023-05-07T00:53:43;12.80;99.90
7388;DHT22;3735;50.136;11.062;2023-05-07T00:56:10;12.80;99.90
7388;DHT22;3735;50.136;11.062;2023-05-07T00:58:36;12.70;99.90
7388;DHT22;3735;50.136;11.062;2023-05-07T01:01:03;12.70;99.90
7388;DHT22;3735;50.136;11.062;2023-05-07T01:03:29;12.70;99.90
7388;DHT22;3735;50.136;11.062;2023-05-07T01:05:57;12.60;99.90
7388;DHT22;3735;50.136;11.062;2023-05-07T01:08:25;12.60;99.90
7388;DHT22;3735;50.136;11.062;2023-05-07T01:10:54;12.50;99.90
7388;DHT22;3735;50.136;11.062;2023-05-07T01:13:21;12.50;99.90
7388;DHT22;3735;50.136;11.062;2023-05-07T01:15:47;12.50;99.90
7388;DHT22;3735;50.136;11.062;2023-05-07T01:18:13;12.50;99.90
7388;DHT22;3735;50.136;11.062;2023-05-07T01:20:41;12.50;99.90
7388;DHT22;3735;50.136;11.062;2023-05-07T01:23:08;12.60;99.90
7388;DHT22;3735;50.136;11.062;2023-05-07T01:25:35;12.50;99.90
7388;DHT22;3735;50.136;11.062;2023-05-07T01:28:01;12.60;99.90
7388;DHT22;3735;50.136;11.062;2023-05-07T01:30:28;12.50;99.90
7388;DHT22;3735;50.136;11.062;2023-05-07T01:33:01;12.50;99.90
7388;DHT22;3735;50.136;11.062;2023-05-07T01:35:38;12.60;99.90
7388;DHT22;3735;50.136;11.062;2023-05-07T01:38:07;12.60;99.90
7388;DHT22;3735;50.136;11.062;2023-05-07T01:40:34;12.60;99.90
7388;DHT22;3735;50.136;11.062;2023-05-07T01:43:01;12.50;99.90
7388;DHT22;3735;50.136;11.062;2023-05-07T01:45:28;12.50;99.90
7388;DHT22;3735;50.136;11.062;2023-05-07T01:48:01;12.50;99.90
7388;DHT22;3735;50.136;11.062;2023-05-07T01:50:28;12.50;99.90
7388;DHT22;3735;50.136;11.062;2023-05-07T01:52:56;12.50;99.90
7388;DHT22;3735;50.136;11.062;2023-05-07T01:55:22;12.50;99.90
7388;DHT22;3735;50.136;11.062;2023-05-07T01:57:48;12.40;99.90
7388;DHT22;3735;50.136;11.062;2023-05-07T02:00:14;12.40;99.90
7388;DHT22;3735;50.136;11.062;2023-05-07T02:02:39;12.40;99.90
7388;DHT22;3735;50.136;11.062;2023-05-07T02:05:05;12.40;99.90
7388;DHT22;3735;50.136;11.062;2023-05-07T02:07:31;12.40;99.90
7388;DHT22;3735;50.136;11.062;2023-05-07T02:09:57;12.30;99.90
7388;DHT22;3735;50.136;11.062;2023-05-07T02:12:23;12.30;99.90
7388;DHT22;3735;50.136;11.062;2023-05-07T02:14:49;12.30;99.90
7388;DHT22;3735;50.136;11.062;2023-05-07T02:17:15;12.20;99.90
7388;DHT22;3735;50.136;11.062;2023-05-07T02:19:41;12.20;99.90
7388;DHT22;3735;50.136;11.062;2023-05-07T02:22:07;12.10;99.90
7388;DHT22;3735;50.136;11.062;2023-05-07T02:24:33;12.00;99.90
7388;DHT22;3735;50.136;11.062;2023-05-07T02:26:59;12.00;99.90
7388;DHT22;3735;50.136;11.062;2023-05-07T02:29:25;11.90;99.90
7388;DHT22;3735;50.136;11.062;2023-05-07T02:31:50;11.80;99.90
7388;DHT22;3735;50.136;11.062;2023-05-07T02:34:18;11.60;99.90
7388;DHT22;3735;50.136;11.062;2023-05-07T02:36:44;11.50;99.90
7388;DHT22;3735;50.136;11.062;2023-05-07T02:39:11;11.40;99.90
7388;DHT22;3735;50.136;11.062;2023-05-07T02:41:37;11.30;99.90
7388;DHT22;3735;50.136;11.062;2023-05-07T02:44:03;11.20;99.90
7388;DHT22;3735;50.136;11.062;2023-05-07T02:46:29;11.10;99.90
7388;DHT22;3735;50.136;11.062;2023-05-07T02:48:55;10.90;99.90
7388;DHT22;3735;50.136;11.062;2023-05-07T02:51:22;10.80;99.90
7388;DHT22;3735;50.136;11.062;2023-05-07T02:53:48;10.90;99.90
7388;DHT22;3735;50.136;11.062;2023-05-07T02:56:14;10.90;99.90
7388;DHT22;3735;50.136;11.062;2023-05-07T02:58:40;11.00;99.90
7388;DHT22;3735;50.136;11.062;2023-05-07T03:01:07;11.10;99.90
7388;DHT22;3735;50.136;11.062;2023-05-07T03:03:34;11.10;99.90
7388;DHT22;3735;50.136;11.062;2023-05-07T03:06:00;11.10;99.90
7388;DHT22;3735;50.136;11.062;2023-05-07T03:08:26;11.10;99.90
7388;DHT22;3735;50.136;11.062;2023-05-07T03:10:52;11.10;99.90
7388;DHT22;3735;50.136;11.062;2023-05-07T03:13:18;11.10;99.90
7388;DHT22;3735;50.136;11.062;2023-05-07T03:15:44;11.10;99.90
7388;DHT22;3735;50.136;11.062;2023-05-07T03:18:10;11.10;99.90
7388;DHT22;3735;50.136;11.062;2023-05-07T03:20:36;11.10;99.90
7388;DHT22;3735;50.136;11.062;2023-05-07T03:23:02;11.00;99.90
7388;DHT22;3735;50.136;11.062;2023-05-07T03:25:28;11.00;99.90
7388;DHT22;3735;50.136;11.062;2023-05-07T03:27:56;11.00;99.90
7388;DHT22;3735;50.136;11.062;2023-05-07T03:30:22;11.10;99.90
7388;DHT22;3735;50.136;11.062;2023-05-07T03:32:48;11.10;99.90
7388;DHT22;3735;50.136;11.062;2023-05-07T03:35:14;11.10;99.90
7388;DHT22;3735;50.136;11.062;2023-05-07T03:37:58;11.10;99.90
7388;DHT22;3735;50.136;11.062;2023-05-07T03:40:24;11.10;99.90
7388;DHT22;3735;50.136;11.062;2023-05-07T03:42:50;11.10;99.90
7388;DHT22;3735;50.136;11.062;2023-05-07T03:45:16;11.00;99.90
7388;DHT22;3735;50.136;11.062;2023-05-07T03:47:41;11.10;99.90
7388;DHT22;3735;50.136;11.062;2023-05-07T03:50:07;11.00;99.90
7388;DHT22;3735;50.136;11.062;2023-05-07T03:52:33;11.00;99.90
7388;DHT22;3735;50.136;11.062;2023-05-07T03:55:00;10.90;99.90
7388;DHT22;3735;50.136;11.062;2023-05-07T03:57:26;10.90;99.90
7388;DHT22;3735;50.136;11.062;2023-05-07T03:59:51;11.00;99.90
7388;DHT22;3735;50.136;11.062;2023-05-07T04:02:17;10.90;99.90
7388;DHT22;3735;50.136;11.062;2023-05-07T04:04:43;10.90;99.90
7388;DHT22;3735;50.136;11.062;2023-05-07T04:07:09;11.00;99.90
7388;DHT22;3735;50.136;11.062;2023-05-07T04:09:35;11.00;99.90
7388;DHT22;3735;50.136;11.062;2023-05-07T04:12:01;11.00;99.90
7388;DHT22;3735;50.136;11.062;2023-05-07T04:14:26;11.00;99.90
7388;DHT22;3735;50.136;11.062;2023-05-07T04:16:52;11.00;99.90
7388;DHT22;3735;50.136;11.062;2023-05-07T04:19:18;11.10;99.90
7388;DHT22;3735;50.136;11.062;2023-05-07T04:21:44;11.10;99.90
7388;DHT22;3735;50.136;11.062;2023-05-07T04:24:09;11.10;99.90
7388;DHT22;3735;50.136;11.062;2023-05-07T04:26:35;11.20;99.90
7388;DHT22;3735;50.136;11.062;2023-05-07T04:29:01;11.10;99.90
7388;DHT22;3735;50.136;11.062;2023-05-07T04:31:26;11.20;99.90
7388;DHT22;3735;50.136;11.062;2023-05-07T04:33:52;11.20;99.90
7388;DHT22;3735;50.136;11.062;2023-05-07T04:36:18;11.20;99.90
7388;DHT22;3735;50.136;11.062;2023-05-07T04:38:44;11.20;99.90
7388;DHT22;3735;50.136;11.062;2023-05-07T04:41:12;11.20;99.90
7388;DHT22;3735;50.136;11.062;2023-05-07T04:43:38;11.30;99.90
7388;DHT22;3735;50.136;11.062;2023-05-07T04:46:03;11.30;99.90
7388;DHT22;3735;50.136;11.062;2023-05-07T04:48:30;11.40;99.90
7388;DHT22;3735;50.136;11.062;2023-05-07T04:50:56;11.50;99.90
7388;DHT22;3735;50.136;11.062;2023-05-07T04:53:21;11.60;99.90
7388;DHT22;3735;50.136;11.062;2023-05-07T04:55:48;11.70;99.90
7388;DHT22;3735;50.136;11.062;2023-05-07T04:58:13;11.80;99.90
7388;DHT22;3735;50.136;11.062;2023-05-07T05:00:39;12.00;99.90
7388;DHT22;3735;50.136;11.062;2023-05-07T05:03:06;12.40;99.90
7388;DHT22;3735;50.136;11.062;2023-05-07T05:05:32;12.90;99.90
7388;DHT22;3735;50.136;11.062;2023-05-07T05:07:58;13.40;99.90
7388;DHT22;3735;50.136;11.062;2023-05-07T05:10:24;13.80;99.90
7388;DHT22;3735;50.136;11.062;2023-05-07T05:12:50;14.30;99.90
7388;DHT22;3735;50.136;11.062;2023-05-07T05:15:16;14.50;99.90
7388;DHT22;3735;50.136;11.062;2023-05-07T05:17:42;14.80;99.90
7388;DHT22;3735;50.136;11.062;2023-05-07T05:20:08;15.30;99.90
7388;DHT22;3735;50.136;11.062;2023-05-07T05:22:36;15.70;99.90
7388;DHT22;3735;50.136;11.062;2023-05-07T05:25:01;16.10;99.90
7388;DHT22;3735;50.136;11.062;2023-05-07T05:27:28;16.00;99.90
7388;DHT22;3735;50.136;11.062;2023-05-07T05:29:54;15.80;99.90
7388;DHT22;3735;50.136;11.062;2023-05-07T05:32:20;15.50;99.90
7388;DHT22;3735;50.136;11.062;2023-05-07T05:34:46;15.20;99.90
7388;DHT22;3735;50.136;11.062;2023-05-07T05:37:13;15.00;99.90
7388;DHT22;3735;50.136;11.062;2023-05-07T05:39:38;15.00;99.90
7388;DHT22;3735;50.136;11.062;2023-05-07T05:42:04;15.40;99.90
7388;DHT22;3735;50.136;11.062;2023-05-07T05:44:30;16.10;99.90
7388;DHT22;3735;50.136;11.062;2023-05-07T05:46:56;16.60;99.90
7388;DHT22;3735;50.136;11.062;2023-05-07T05:49:24;16.80;99.90
7388;DHT22;3735;50.136;11.062;2023-05-07T05:51:50;17.00;99.90
7388;DHT22;3735;50.136;11.062;2023-05-07T05:54:16;17.30;99.90
7388;DHT22;3735;50.136;11.062;2023-05-07T05:56:42;17.50;99.90
7388;DHT22;3735;50.136;11.062;2023-05-07T05:59:08;17.70;99.90
7388;DHT22;3735;50.136;11.062;2023-05-07T06:01:33;17.90;99.90
7388;DHT22;3735;50.136;11.062;2023-05-07T06:03:59;18.00;99.90
7388;DHT22;3735;50.136;11.062;2023-05-07T06:06:25;18.40;99.90
7388;DHT22;3735;50.136;11.062;2023-05-07T06:08:51;19.10;99.90
7388;DHT22;3735;50.136;11.062;2023-05-07T06:11:17;19.90;99.90
7388;DHT22;3735;50.136;11.062;2023-05-07T06:13:42;20.70;99.90
7388;DHT22;3735;50.136;11.062;2023-05-07T06:16:08;21.30;99.90
7388;DHT22;3735;50.136;11.062;2023-05-07T06:18:34;21.00;99.90
7388;DHT22;3735;50.136;11.062;2023-05-07T06:21:01;20.30;99.90
7388;DHT22;3735;50.136;11.062;2023-05-07T06:23:27;19.40;99.90
7388;DHT22;3735;50.136;11.062;2023-05-07T06:25:53;18.70;99.90
7388;DHT22;3735;50.136;11.062;2023-05-07T06:28:19;18.20;99.90
7388;DHT22;3735;50.136;11.062;2023-05-07T06:30:44;17.80;99.90
7388;DHT22;3735;50.136;11.062;2023-05-07T06:33:10;17.50;99.90
7388;DHT22;3735;50.136;11.062;2023-05-07T06:35:36;17.30;99.90
7388;DHT22;3735;50.136;11.062;2023-05-07T06:38:02;17.20;99.90
7388;DHT22;3735;50.136;11.062;2023-05-07T06:40:28;17.10;99.90
7388;DHT22;3735;50.136;11.062;2023-05-07T06:42:53;17.00;99.90
7388;DHT22;3735;50.136;11.062;2023-05-07T06:45:20;16.80;99.90
7388;DHT22;3735;50.136;11.062;2023-05-07T06:47:46;16.60;99.90
7388;DHT22;3735;50.136;11.062;2023-05-07T06:50:11;16.50;99.90
7388;DHT22;3735;50.136;11.062;2023-05-07T06:52:37;16.30;99.90
7388;DHT22;3735;50.136;11.062;2023-05-07T06:55:03;16.40;99.90
7388;DHT22;3735;50.136;11.062;2023-05-07T06:57:30;16.20;99.90
7388;DHT22;3735;50.136;11.062;2023-05-07T06:59:56;16.40;99.90
7388;DHT22;3735;50.136;11.062;2023-05-07T07:02:21;16.30;99.90
7388;DHT22;3735;50.136;11.062;2023-05-07T07:04:47;16.40;99.90
7388;DHT22;3735;50.136;11.062;2023-05-07T07:07:13;16.60;99.90
7388;DHT22;3735;50.136;11.062;2023-05-07T07:09:39;16.80;99.90
7388;DHT22;3735;50.136;11.062;2023-05-07T07:12:04;16.90;99.90
7388;DHT22;3735;50.136;11.062;2023-05-07T07:14:30;17.00;99.90
7388;DHT22;3735;50.136;11.062;2023-05-07T07:16:56;17.30;99.90
7388;DHT22;3735;50.136;11.062;2023-05-07T07:19:22;17.50;99.90
7388;DHT22;3735;50.136;11.062;2023-05-07T07:21:47;17.60;99.90
7388;DHT22;3735;50.136;11.062;2023-05-07T07:24:14;17.40;99.90
7388;DHT22;3735;50.136;11.062;2023-05-07T07:26:44;17.40;99.90
7388;DHT22;3735;50.136;11.062;2023-05-07T07:29:10;17.60;99.90
7388;DHT22;3735;50.136;11.062;2023-05-07T07:31:36;17.70;99.90
7388;DHT22;3735;50.136;11.062;2023-05-07T07:34:01;17.80;99.90
7388;DHT22;3735;50.136;11.062;2023-05-07T07:36:27;18.10;99.90
7388;DHT22;3735;50.136;11.062;2023-05-07T07:38:53;18.20;99.90
7388;DHT22;3735;50.136;11.062;2023-05-07T07:41:19;18.30;99.90
7388;DHT22;3735;50.136;11.062;2023-05-07T07:43:45;18.50;99.90
7388;DHT22;3735;50.136;11.062;2023-05-07T07:46:12;18.60;99.90
7388;DHT22;3735;50.136;11.062;2023-05-07T07:48:38;18.70;99.90
7388;DHT22;3735;50.136;11.062;2023-05-07T07:51:04;18.90;99.90
7388;DHT22;3735;50.136;11.062;2023-05-07T07:53:30;19.10;99.90
7388;DHT22;3735;50.136;11.062;2023-05-07T07:55:56;19.20;99.90
7388;DHT22;3735;50.136;11.062;2023-05-07T07:58:22;19.20;99.90
7388;DHT22;3735;50.136;11.062;2023-05-07T08:00:47;19.40;99.90
7388;DHT22;3735;50.136;11.062;2023-05-07T08:03:14;19.40;99.90
7388;DHT22;3735;50.136;11.062;2023-05-07T08:05:42;19.30;99.90
7388;DHT22;3735;50.136;11.062;2023-05-07T08:08:08;19.30;99.90
7388;DHT22;3735;50.136;11.062;2023-05-07T08:10:34;19.40;99.90
7388;DHT22;3735;50.136;11.062;2023-05-07T08:13:00;19.50;99.90
7388;DHT22;3735;50.136;11.062;2023-05-07T08:15:28;19.80;99.90
7388;DHT22;3735;50.136;11.062;2023-05-07T08:17:54;19.70;99.90
7388;DHT22;3735;50.136;11.062;2023-05-07T08:20:23;19.50;99.90
7388;DHT22;3735;50.136;11.062;2023-05-07T08:22:48;19.40;99.90
7388;DHT22;3735;50.136;11.062;2023-05-07T08:25:14;19.80;99.90
7388;DHT22;3735;50.136;11.062;2023-05-07T08:27:40;20.00;99.90
7388;DHT22;3735;50.136;11.062;2023-05-07T08:30:07;20.50;99.90
7388;DHT22;3735;50.136;11.062;2023-05-07T08:32:33;21.20;99.90
7388;DHT22;3735;50.136;11.062;2023-05-07T08:34:59;21.90;99.90
7388;DHT22;3735;50.136;11.062;2023-05-07T08:37:25;22.50;99.90
7388;DHT22;3735;50.136;11.062;2023-05-07T08:39:51;23.10;99.90
7388;DHT22;3735;50.136;11.062;2023-05-07T08:42:17;23.70;99.90
7388;DHT22;3735;50.136;11.062;2023-05-07T08:44:45;24.00;99.90
7388;DHT22;3735;50.136;11.062;2023-05-07T08:47:12;24.30;99.90
7388;DHT22;3735;50.136;11.062;2023-05-07T08:49:38;24.30;99.90
7388;DHT22;3735;50.136;11.062;2023-05-07T08:52:04;24.40;99.90
7388;DHT22;3735;50.136;11.062;2023-05-07T08:54:31;24.60;99.90
7388;DHT22;3735;50.136;11.062;2023-05-07T08:56:58;24.10;99.90
7388;DHT22;3735;50.136;11.062;2023-05-07T08:59:25;24.10;99.90
7388;DHT22;3735;50.136;11.062;2023-05-07T09:01:51;24.10;99.90
7388;DHT22;3735;50.136;11.062;2023-05-07T09:04:17;24.50;99.90
7388;DHT22;3735;50.136;11.062;2023-05-07T09:06:42;25.10;99.90
7388;DHT22;3735;50.136;11.062;2023-05-07T09:09:08;25.50;99.90
7388;DHT22;3735;50.136;11.062;2023-05-07T09:11:34;25.50;99.90
7388;DHT22;3735;50.136;11.062;2023-05-07T09:14:00;25.50;99.90
7388;DHT22;3735;50.136;11.062;2023-05-07T09:16:30;25.70;99.90
7388;DHT22;3735;50.136;11.062;2023-05-07T09:18:58;25.80;99.90
7388;DHT22;3735;50.136;11.062;2023-05-07T09:21:26;26.00;99.90
7388;DHT22;3735;50.136;11.062;2023-05-07T09:23:54;26.60;99.90
7388;DHT22;3735;50.136;11.062;2023-05-07T09:26:24;27.20;99.90
7388;DHT22;3735;50.136;11.062;2023-05-07T09:28:51;27.70;99.90
7388;DHT22;3735;50.136;11.062;2023-05-07T09:31:17;28.50;99.90
7388;DHT22;3735;50.136;11.062;2023-05-07T09:33:43;29.20;99.90
7388;DHT22;3735;50.136;11.062;2023-05-07T09:36:10;29.40;99.90
7388;DHT22;3735;50.136;11.062;2023-05-07T09:38:36;29.50;99.90
7388;DHT22;3735;50.136;11.062;2023-05-07T09:41:06;28.90;99.90
7388;DHT22;3735;50.136;11.062;2023-05-07T09:43:37;28.20;99.90
7388;DHT22;3735;50.136;11.062;2023-05-07T09:46:13;27.60;99.90
7388;DHT22;3735;50.136;11.062;2023-05-07T09:48:41;27.10;99.90
7388;DHT22;3735;50.136;11.062;2023-05-07T09:51:24;26.50;99.90
7388;DHT22;3735;50.136;11.062;2023-05-07T09:53:53;25.90;99.90
7388;DHT22;3735;50.136;11.062;2023-05-07T09:56:21;25.60;99.90
7388;DHT22;3735;50.136;11.062;2023-05-07T09:58:49;25.50;99.90
7388;DHT22;3735;50.136;11.062;2023-05-07T10:01:19;25.40;99.90
7388;DHT22;3735;50.136;11.062;2023-05-07T10:03:49;25.70;99.90
7388;DHT22;3735;50.136;11.062;2023-05-07T10:06:16;25.90;99.90
7388;DHT22;3735;50.136;11.062;2023-05-07T10:08:43;26.40;99.90
7388;DHT22;3735;50.136;11.062;2023-05-07T10:11:09;26.90;99.90
7388;DHT22;3735;50.136;11.062;2023-05-07T10:13:35;27.00;99.90
7388;DHT22;3735;50.136;11.062;2023-05-07T10:16:04;27.00;99.90
7388;DHT22;3735;50.136;11.062;2023-05-07T10:18:31;27.10;99.90
7388;DHT22;3735;50.136;11.062;2023-05-07T10:21:11;27.30;99.90
7388;DHT22;3735;50.136;11.062;2023-05-07T10:23:50;27.50;99.90
7388;DHT22;3735;50.136;11.062;2023-05-07T10:26:20;27.70;99.90
7388;DHT22;3735;50.136;11.062;2023-05-07T10:28:53;28.00;99.90
7388;DHT22;3735;50.136;11.062;2023-05-07T10:34:33;28.90;99.90
7388;DHT22;3735;50.136;11.062;2023-05-07T10:37:03;28.70;99.90
7388;DHT22;3735;50.136;11.062;2023-05-07T10:39:29;28.60;99.90
7388;DHT22;3735;50.136;11.062;2023-05-07T10:41:55;28.70;99.90
7388;DHT22;3735;50.136;11.062;2023-05-07T10:44:28;28.70;99.90
7388;DHT22;3735;50.136;11.062;2023-05-07T10:52:22;30.80;99.90
7388;DHT22;3735;50.136;11.062;2023-05-07T10:57:46;30.00;99.90
7388;DHT22;3735;50.136;11.062;2023-05-07T11:03:11;29.50;99.90
7388;DHT22;3735;50.136;11.062;2023-05-07T11:05:37;30.00;99.90
7388;DHT22;3735;50.136;11.062;2023-05-07T11:08:04;30.60;99.90
7388;DHT22;3735;50.136;11.062;2023-05-07T11:10:56;31.10;99.90
7388;DHT22;3735;50.136;11.062;2023-05-07T11:13:52;31.20;99.90
7388;DHT22;3735;50.136;11.062;2023-05-07T11:16:23;31.10;99.90
7388;DHT22;3735;50.136;11.062;2023-05-07T11:18:52;31.10;99.90
7388;DHT22;3735;50.136;11.062;2023-05-07T11:24:07;31.70;99.90
7388;DHT22;3735;50.136;11.062;2023-05-07T11:26:48;31.70;99.90
7388;DHT22;3735;50.136;11.062;2023-05-07T11:29:20;32.30;99.90
7388;DHT22;3735;50.136;11.062;2023-05-07T11:31:51;32.40;99.90
7388;DHT22;3735;50.136;11.062;2023-05-07T11:34:23;31.60;99.90
7388;DHT22;3735;50.136;11.062;2023-05-07T11:36:51;30.70;99.90
7388;DHT22;3735;50.136;11.062;2023-05-07T11:39:25;30.10;99.90
7388;DHT22;3735;50.136;11.062;2023-05-07T11:41:51;30.00;99.90
7388;DHT22;3735;50.136;11.062;2023-05-07T11:44:17;30.30;99.90
7388;DHT22;3735;50.136;11.062;2023-05-07T11:46:44;31.00;99.90
7388;DHT22;3735;50.136;11.062;2023-05-07T11:49:10;31.90;99.90
7388;DHT22;3735;50.136;11.062;2023-05-07T11:51:36;32.40;99.90
7388;DHT22;3735;50.136;11.062;2023-05-07T11:54:05;33.30;99.90
7388;DHT22;3735;50.136;11.062;2023-05-07T11:56:36;33.90;99.90
7388;DHT22;3735;50.136;11.062;2023-05-07T11:59:03;34.30;99.90
7388;DHT22;3735;50.136;11.062;2023-05-07T12:01:29;34.40;99.90
7388;DHT22;3735;50.136;11.062;2023-05-07T12:03:54;34.90;99.90
7388;DHT22;3735;50.136;11.062;2023-05-07T12:06:20;35.40;99.90
7388;DHT22;3735;50.136;11.062;2023-05-07T12:08:46;36.10;99.90
7388;DHT22;3735;50.136;11.062;2023-05-07T12:11:25;35.80;99.90
7388;DHT22;3735;50.136;11.062;2023-05-07T12:13:51;34.40;99.90
7388;DHT22;3735;50.136;11.062;2023-05-07T12:16:19;34.50;99.90
7388;DHT22;3735;50.136;11.062;2023-05-07T12:18:46;34.90;99.90
7388;DHT22;3735;50.136;11.062;2023-05-07T12:21:12;34.90;99.90
7388;DHT22;3735;50.136;11.062;2023-05-07T12:23:39;34.00;99.90
7388;DHT22;3735;50.136;11.062;2023-05-07T12:26:05;32.50;99.90
7388;DHT22;3735;50.136;11.062;2023-05-07T12:28:36;31.00;99.90
7388;DHT22;3735;50.136;11.062;2023-05-07T12:31:04;29.60;99.90
7388;DHT22;3735;50.136;11.062;2023-05-07T12:33:31;28.60;99.90
7388;DHT22;3735;50.136;11.062;2023-05-07T12:35:58;28.60;99.90
7388;DHT22;3735;50.136;11.062;2023-05-07T12:38:36;28.90;99.90
7388;DHT22;3735;50.136;11.062;2023-05-07T12:41:03;28.80;99.90
7388;DHT22;3735;50.136;11.062;2023-05-07T12:43:30;28.40;99.90
7388;DHT22;3735;50.136;11.062;2023-05-07T12:46:07;27.90;99.90
7388;DHT22;3735;50.136;11.062;2023-05-07T12:48:33;27.60;99.90
7388;DHT22;3735;50.136;11.062;2023-05-07T12:51:02;27.30;99.90
7388;DHT22;3735;50.136;11.062;2023-05-07T12:53:29;27.30;99.90
7388;DHT22;3735;50.136;11.062;2023-05-07T12:55:56;27.10;99.90
7388;DHT22;3735;50.136;11.062;2023-05-07T12:58:25;26.80;99.90
7388;DHT22;3735;50.136;11.062;2023-05-07T13:00:56;26.70;99.90
7388;DHT22;3735;50.136;11.062;2023-05-07T13:06:00;27.40;99.90
7388;DHT22;3735;50.136;11.062;2023-05-07T13:08:30;27.80;99.90
7388;DHT22;3735;50.136;11.062;2023-05-07T13:10:59;28.80;99.90
7388;DHT22;3735;50.136;11.062;2023-05-07T13:13:33;30.00;99.90
7388;DHT22;3735;50.136;11.062;2023-05-07T13:16:01;29.70;99.90
7388;DHT22;3735;50.136;11.062;2023-05-07T13:18:29;29.60;99.90
7388;DHT22;3735;50.136;11.062;2023-05-07T13:20:57;29.30;99.90
7388;DHT22;3735;50.136;11.062;2023-05-07T13:23:23;28.30;99.90
7388;DHT22;3735;50.136;11.062;2023-05-07T13:25:49;27.70;99.90
7388;DHT22;3735;50.136;11.062;2023-05-07T13:28:16;28.50;99.90
7388;DHT22;3735;50.136;11.062;2023-05-07T13:30:41;28.80;99.90
7388;DHT22;3735;50.136;11.062;2023-05-07T13:33:08;28.40;99.90
7388;DHT22;3735;50.136;11.062;2023-05-07T13:35:34;27.90;99.90
7388;DHT22;3735;50.136;11.062;2023-05-07T13:38:01;27.70;99.90
7388;DHT22;3735;50.136;11.062;2023-05-07T13:40:26;27.40;99.90
7388;DHT22;3735;50.136;11.062;2023-05-07T13:42:53;28.00;99.90
7388;DHT22;3735;50.136;11.062;2023-05-07T13:45:19;28.80;99.90
7388;DHT22;3735;50.136;11.062;2023-05-07T13:47:46;29.30;99.90
7388;DHT22;3735;50.136;11.062;2023-05-07T13:50:12;29.60;99.90
7388;DHT22;3735;50.136;11.062;2023-05-07T13:52:43;29.80;99.90
7388;DHT22;3735;50.136;11.062;2023-05-07T13:55:19;30.70;99.90
7388;DHT22;3735;50.136;11.062;2023-05-07T13:57:46;30.40;99.90
7388;DHT22;3735;50.136;11.062;2023-05-07T14:00:13;29.30;99.90
7388;DHT22;3735;50.136;11.062;2023-05-07T14:02:39;29.30;99.90
7388;DHT22;3735;50.136;11.062;2023-05-07T14:05:06;30.60;99.90
7388;DHT22;3735;50.136;11.062;2023-05-07T14:07:33;32.20;99.90
7388;DHT22;3735;50.136;11.062;2023-05-07T14:09:59;33.20;99.90
7388;DHT22;3735;50.136;11.062;2023-05-07T14:12:25;33.30;99.90
7388;DHT22;3735;50.136;11.062;2023-05-07T14:14:50;33.50;99.90
7388;DHT22;3735;50.136;11.062;2023-05-07T14:17:17;33.10;99.90
7388;DHT22;3735;50.136;11.062;2023-05-07T14:19:43;31.50;99.90
7388;DHT22;3735;50.136;11.062;2023-05-07T14:22:09;30.20;99.90
7388;DHT22;3735;50.136;11.062;2023-05-07T14:24:36;29.00;99.90
7388;DHT22;3735;50.136;11.062;2023-05-07T14:27:01;27.80;99.90
7388;DHT22;3735;50.136;11.062;2023-05-07T14:29:28;27.30;99.90
7388;DHT22;3735;50.136;11.062;2023-05-07T14:31:53;27.20;99.90
7388;DHT22;3735;50.136;11.062;2023-05-07T14:34:19;27.10;99.90
7388;DHT22;3735;50.136;11.062;2023-05-07T14:36:45;26.80;99.90
7388;DHT22;3735;50.136;11.062;2023-05-07T14:39:11;26.50;99.90
7388;DHT22;3735;50.136;11.062;2023-05-07T14:41:37;26.40;99.90
7388;DHT22;3735;50.136;11.062;2023-05-07T14:44:03;25.80;99.90
7388;DHT22;3735;50.136;11.062;2023-05-07T14:46:29;25.40;99.90
7388;DHT22;3735;50.136;11.062;2023-05-07T14:48:56;25.00;99.90
7388;DHT22;3735;50.136;11.062;2023-05-07T14:51:23;24.80;99.90
7388;DHT22;3735;50.136;11.062;2023-05-07T14:53:50;24.70;99.90
7388;DHT22;3735;50.136;11.062;2023-05-07T14:56:16;24.50;99.90
7388;DHT22;3735;50.136;11.062;2023-05-07T14:58:42;24.30;99.90
7388;DHT22;3735;50.136;11.062;2023-05-07T15:01:09;24.10;99.90
7388;DHT22;3735;50.136;11.062;2023-05-07T15:03:35;23.90;99.90
7388;DHT22;3735;50.136;11.062;2023-05-07T15:06:02;23.90;99.90
7388;DHT22;3735;50.136;11.062;2023-05-07T15:08:28;23.80;99.90
7388;DHT22;3735;50.136;11.062;2023-05-07T15:10:54;24.70;99.90
7388;DHT22;3735;50.136;11.062;2023-05-07T15:13:20;25.90;99.90
7388;DHT22;3735;50.136;11.062;2023-05-07T15:15:47;26.70;99.90
7388;DHT22;3735;50.136;11.062;2023-05-07T15:18:13;26.80;99.90
7388;DHT22;3735;50.136;11.062;2023-05-07T15:20:40;27.00;99.90
7388;DHT22;3735;50.136;11.062;2023-05-07T15:23:08;27.10;99.90
7388;DHT22;3735;50.136;11.062;2023-05-07T15:25:36;26.90;99.90
7388;DHT22;3735;50.136;11.062;2023-05-07T15:28:02;26.70;99.90
7388;DHT22;3735;50.136;11.062;2023-05-07T15:30:28;26.30;99.90
7388;DHT22;3735;50.136;11.062;2023-05-07T15:32:54;26.00;99.90
7388;DHT22;3735;50.136;11.062;2023-05-07T15:35:20;25.70;99.90
7388;DHT22;3735;50.136;11.062;2023-05-07T15:37:48;26.00;99.90
7388;DHT22;3735;50.136;11.062;2023-05-07T15:40:17;26.30;99.90
7388;DHT22;3735;50.136;11.062;2023-05-07T15:42:45;26.40;99.90
7388;DHT22;3735;50.136;11.062;2023-05-07T15:45:11;25.80;99.90
7388;DHT22;3735;50.136;11.062;2023-05-07T15:47:37;25.00;99.90
7388;DHT22;3735;50.136;11.062;2023-05-07T15:50:03;24.40;99.90
7388;DHT22;3735;50.136;11.062;2023-05-07T15:52:30;24.30;99.90
7388;DHT22;3735;50.136;11.062;2023-05-07T15:54:56;24.30;99.90
7388;DHT22;3735;50.136;11.062;2023-05-07T15:57:23;24.00;99.90
7388;DHT22;3735;50.136;11.062;2023-05-07T15:59:49;24.00;99.90
7388;DHT22;3735;50.136;11.062;2023-05-07T16:02:15;23.70;99.90